sensor_id;sensor_type;location;lat;lon;timestamp;pressure;altitude;pressure_sealevel;temperature;humidity
50380;BME280;37474;59.468;18.040;2022-08-03T00:00:47;101135.66;;;16.12;98.90
50380;BME280;37474;59.468;18.040;2022-08-03T00:03:16;101130.38;;;16.12;99.03
50380;BME280;37474;59.468;18.040;2022-08-03T00:05:46;101116.47;;;16.21;100.00
50380;BME280;37474;59.468;18.040;2022-08-03T00:08:30;101111.97;;;16.11;100.00
50380;BME280;37474;59.468;18.040;2022-08-03T00:11:08;101101.03;;;16.04;96.44
50380;BME280;37474;59.468;18.040;2022-08-03T00:13:36;101101.25;;;16.01;97.88
50380;BME280;37474;59.468;18.040;2022-08-03T00:16:07;101097.38;;;15.94;100.00
50380;BME280;37474;59.468;18.040;2022-08-03T00:18:39;101108.34;;;15.77;97.20
50380;BME280;37474;59.468;18.040;2022-08-03T00:21:09;101095.81;;;15.91;97.68
50380;BME280;37474;59.468;18.040;2022-08-03T00:23:39;101104.50;;;15.69;98.54
50380;BME280;37474;59.468;18.040;2022-08-03T00:26:19;101102.00;;;15.55;99.71
50380;BME280;37474;59.468;18.040;2022-08-03T00:28:52;101108.94;;;15.32;100.00
50380;BME280;37474;59.468;18.040;2022-08-03T00:31:20;101103.69;;;15.32;100.00
50380;BME280;37474;59.468;18.040;2022-08-03T00:34:11;101106.72;;;15.39;100.00
50380;BME280;37474;59.468;18.040;2022-08-03T00:36:41;101108.91;;;15.45;100.00
50380;BME280;37474;59.468;18.040;2022-08-03T00:39:12;101108.66;;;15.24;100.00
50380;BME280;37474;59.468;18.040;2022-08-03T00:41:42;101109.44;;;15.14;100.00
50380;BME280;37474;59.468;18.040;2022-08-03T00:44:12;101103.72;;;15.20;100.00
50380;BME280;37474;59.468;18.040;2022-08-03T00:46:43;101103.53;;;15.10;100.00
50380;BME280;37474;59.468;18.040;2022-08-03T00:49:11;101092.78;;;15.00;100.00
50380;BME280;37474;59.468;18.040;2022-08-03T00:51:42;101094.47;;;15.01;100.00
50380;BME280;37474;59.468;18.040;2022-08-03T00:54:12;101098.06;;;15.00;100.00
50380;BME280;37474;59.468;18.040;2022-08-03T00:56:43;101094.91;;;14.95;100.00
50380;BME280;37474;59.468;18.040;2022-08-03T00:59:28;101095.97;;;14.67;100.00
50380;BME280;37474;59.468;18.040;2022-08-03T01:01:56;101090.94;;;14.52;100.00
50380;BME280;37474;59.468;18.040;2022-08-03T01:04:27;101089.44;;;14.60;100.00
50380;BME280;37474;59.468;18.040;2022-08-03T01:07:02;101081.63;;;14.59;100.00
50380;BME280;37474;59.468;18.040;2022-08-03T01:09:45;101087.53;;;14.75;100.00
50380;BME280;37474;59.468;18.040;2022-08-03T01:12:28;101090.84;;;14.53;100.00
50380;BME280;37474;59.468;18.040;2022-08-03T01:15:09;101096.63;;;14.71;100.00
50380;BME280;37474;59.468;18.040;2022-08-03T01:17:47;101092.81;;;14.62;100.00
50380;BME280;37474;59.468;18.040;2022-08-03T01:20:20;101090.91;;;14.77;100.00
50380;BME280;37474;59.468;18.040;2022-08-03T01:23:02;101079.94;;;14.70;100.00
50380;BME280;37474;59.468;18.040;2022-08-03T01:25:49;101089.84;;;14.80;100.00
50380;BME280;37474;59.468;18.040;2022-08-03T01:28:36;101088.34;;;15.01;100.00
50380;BME280;37474;59.468;18.040;2022-08-03T01:31:11;101101.41;;;15.15;100.00
50380;BME280;37474;59.468;18.040;2022-08-03T01:33:49;101089.28;;;15.13;100.00
50380;BME280;37474;59.468;18.040;2022-08-03T01:36:23;101091.06;;;15.49;96.03
50380;BME280;37474;59.468;18.040;2022-08-03T01:38:59;101087.78;;;15.58;94.09
50380;BME280;37474;59.468;18.040;2022-08-03T01:41:39;101090.31;;;15.59;94.58
50380;BME280;37474;59.468;18.040;2022-08-03T01:44:13;101080.94;;;15.66;93.43
50380;BME280;37474;59.468;18.040;2022-08-03T01:46:59;101091.66;;;15.76;94.13
50380;BME280;37474;59.468;18.040;2022-08-03T01:49:32;101075.13;;;15.85;91.59
50380;BME280;37474;59.468;18.040;2022-08-03T01:52:06;101074.69;;;15.91;93.26
50380;BME280;37474;59.468;18.040;2022-08-03T01:54:39;101084.19;;;15.94;91.75
50380;BME280;37474;59.468;18.040;2022-08-03T01:57:13;101075.28;;;15.95;92.49
50380;BME280;37474;59.468;18.040;2022-08-03T01:59:44;101078.16;;;15.92;93.38
50380;BME280;37474;59.468;18.040;2022-08-03T02:02:21;101078.34;;;16.13;90.71
50380;BME280;37474;59.468;18.040;2022-08-03T02:05:01;101074.09;;;15.99;93.78
50380;BME280;37474;59.468;18.040;2022-08-03T02:07:39;101077.59;;;15.99;93.14
50380;BME280;37474;59.468;18.040;2022-08-03T02:10:10;101068.00;;;16.10;91.40
50380;BME280;37474;59.468;18.040;2022-08-03T02:12:44;101071.38;;;16.12;91.01
50380;BME280;37474;59.468;18.040;2022-08-03T02:15:17;101072.47;;;16.09;92.23
50380;BME280;37474;59.468;18.040;2022-08-03T02:17:50;101070.03;;;16.06;93.61
50380;BME280;37474;59.468;18.040;2022-08-03T02:20:19;101068.84;;;16.10;93.40
50380;BME280;37474;59.468;18.040;2022-08-03T02:22:50;101078.16;;;16.27;91.66
50380;BME280;37474;59.468;18.040;2022-08-03T02:25:20;101067.44;;;16.17;91.23
50380;BME280;37474;59.468;18.040;2022-08-03T02:27:51;101071.25;;;16.13;92.57
50380;BME280;37474;59.468;18.040;2022-08-03T02:30:30;101057.13;;;16.25;90.09
50380;BME280;37474;59.468;18.040;2022-08-03T02:33:08;101053.00;;;16.10;91.44
50380;BME280;37474;59.468;18.040;2022-08-03T02:35:42;101059.38;;;16.19;90.99
50380;BME280;37474;59.468;18.040;2022-08-03T02:38:12;101068.28;;;16.18;90.39
50380;BME280;37474;59.468;18.040;2022-08-03T02:40:46;101065.25;;;16.11;91.59
50380;BME280;37474;59.468;18.040;2022-08-03T02:43:20;101062.03;;;16.19;90.38
50380;BME280;37474;59.468;18.040;2022-08-03T02:45:54;101064.66;;;16.08;91.26
50380;BME280;37474;59.468;18.040;2022-08-03T02:48:32;101061.78;;;16.22;89.42
50380;BME280;37474;59.468;18.040;2022-08-03T02:51:04;101058.91;;;16.25;88.32
50380;BME280;37474;59.468;18.040;2022-08-03T02:53:35;101057.22;;;16.13;90.81
50380;BME280;37474;59.468;18.040;2022-08-03T02:56:06;101059.78;;;16.37;87.98
50380;BME280;37474;59.468;18.040;2022-08-03T02:58:39;101066.63;;;16.39;88.20
50380;BME280;37474;59.468;18.040;2022-08-03T03:01:12;101048.94;;;16.28;88.50
50380;BME280;37474;59.468;18.040;2022-08-03T03:03:49;101054.34;;;16.16;90.45
50380;BME280;37474;59.468;18.040;2022-08-03T03:06:21;101052.91;;;16.23;89.83
50380;BME280;37474;59.468;18.040;2022-08-03T03:08:57;101042.53;;;15.97;91.38
50380;BME280;37474;59.468;18.040;2022-08-03T03:11:28;101035.84;;;16.16;89.91
50380;BME280;37474;59.468;18.040;2022-08-03T03:14:00;101031.94;;;15.97;91.82
50380;BME280;37474;59.468;18.040;2022-08-03T03:16:35;101033.94;;;15.83;92.66
50380;BME280;37474;59.468;18.040;2022-08-03T03:19:06;101024.34;;;15.82;92.97
50380;BME280;37474;59.468;18.040;2022-08-03T03:21:38;101024.00;;;15.86;93.46
50380;BME280;37474;59.468;18.040;2022-08-03T03:24:09;101018.75;;;15.97;91.39
50380;BME280;37474;59.468;18.040;2022-08-03T03:26:42;101025.56;;;15.89;91.79
50380;BME280;37474;59.468;18.040;2022-08-03T03:29:14;101028.09;;;15.90;92.40
50380;BME280;37474;59.468;18.040;2022-08-03T03:31:45;101032.88;;;15.85;92.38
50380;BME280;37474;59.468;18.040;2022-08-03T03:34:20;101032.09;;;15.72;93.76
50380;BME280;37474;59.468;18.040;2022-08-03T03:36:58;101034.91;;;15.82;92.72
50380;BME280;37474;59.468;18.040;2022-08-03T03:39:31;101044.25;;;15.75;94.37
50380;BME280;37474;59.468;18.040;2022-08-03T03:42:04;101042.00;;;15.81;92.65
50380;BME280;37474;59.468;18.040;2022-08-03T03:44:35;101053.44;;;15.93;92.00
50380;BME280;37474;59.468;18.040;2022-08-03T03:47:04;101052.84;;;16.00;91.04
50380;BME280;37474;59.468;18.040;2022-08-03T03:49:35;101043.72;;;16.05;90.43
50380;BME280;37474;59.468;18.040;2022-08-03T03:52:06;101051.84;;;16.25;88.12
50380;BME280;37474;59.468;18.040;2022-08-03T03:54:40;101051.22;;;16.22;88.21
50380;BME280;37474;59.468;18.040;2022-08-03T03:57:16;101042.56;;;16.20;88.63
50380;BME280;37474;59.468;18.040;2022-08-03T03:59:49;101051.81;;;16.14;88.43
50380;BME280;37474;59.468;18.040;2022-08-03T04:02:20;101050.94;;;16.02;89.37
50380;BME280;37474;59.468;18.040;2022-08-03T04:04:52;101047.09;;;16.07;90.65
50380;BME280;37474;59.468;18.040;2022-08-03T04:07:45;101043.66;;;16.28;87.85
50380;BME280;37474;59.468;18.040;2022-08-03T04:10:41;101049.06;;;16.16;88.96
50380;BME280;37474;59.468;18.040;2022-08-03T04:13:32;101040.78;;;16.43;87.52
50380;BME280;37474;59.468;18.040;2022-08-03T04:16:05;101039.22;;;16.40;86.47
50380;BME280;37474;59.468;18.040;2022-08-03T04:18:40;101033.34;;;16.70;85.02
50380;BME280;37474;59.468;18.040;2022-08-03T04:21:13;101033.72;;;16.54;86.04
50380;BME280;37474;59.468;18.040;2022-08-03T04:23:47;101040.56;;;16.68;86.06
50380;BME280;37474;59.468;18.040;2022-08-03T04:26:21;101044.16;;;16.78;85.28
50380;BME280;37474;59.468;18.040;2022-08-03T04:28:53;101049.34;;;16.91;84.01
50380;BME280;37474;59.468;18.040;2022-08-03T04:31:25;101050.28;;;17.01;84.34
50380;BME280;37474;59.468;18.040;2022-08-03T04:33:56;101045.63;;;17.37;82.13
50380;BME280;37474;59.468;18.040;2022-08-03T04:36:30;101048.72;;;17.53;81.12
50380;BME280;37474;59.468;18.040;2022-08-03T04:39:02;101044.47;;;17.61;79.98
50380;BME280;37474;59.468;18.040;2022-08-03T04:41:37;101041.34;;;17.56;80.47
50380;BME280;37474;59.468;18.040;2022-08-03T04:44:29;101043.44;;;17.74;81.26
50380;BME280;37474;59.468;18.040;2022-08-03T04:47:01;101047.09;;;18.14;78.66
50380;BME280;37474;59.468;18.040;2022-08-03T04:49:32;101041.91;;;18.34;77.11
50380;BME280;37474;59.468;18.040;2022-08-03T04:52:07;101048.31;;;18.31;77.69
50380;BME280;37474;59.468;18.040;2022-08-03T04:54:39;101051.03;;;18.20;77.50
50380;BME280;37474;59.468;18.040;2022-08-03T04:57:14;101051.13;;;18.39;77.22
50380;BME280;37474;59.468;18.040;2022-08-03T04:59:49;101059.66;;;18.64;75.27
50380;BME280;37474;59.468;18.040;2022-08-03T05:02:31;101062.38;;;18.83;74.52
50380;BME280;37474;59.468;18.040;2022-08-03T05:05:01;101053.53;;;19.13;73.75
50380;BME280;37474;59.468;18.040;2022-08-03T05:07:30;101046.56;;;19.41;71.67
50380;BME280;37474;59.468;18.040;2022-08-03T05:10:05;101054.66;;;19.20;72.00
50380;BME280;37474;59.468;18.040;2022-08-03T05:12:44;101060.50;;;19.04;73.99
50380;BME280;37474;59.468;18.040;2022-08-03T05:15:21;101062.19;;;18.65;74.99
50380;BME280;37474;59.468;18.040;2022-08-03T05:17:55;101062.19;;;18.65;76.55
50380;BME280;37474;59.468;18.040;2022-08-03T05:20:27;101059.22;;;18.38;77.33
50380;BME280;37474;59.468;18.040;2022-08-03T05:23:00;101065.47;;;18.57;77.69
50380;BME280;37474;59.468;18.040;2022-08-03T05:25:32;101059.59;;;18.54;78.22
50380;BME280;37474;59.468;18.040;2022-08-03T05:28:05;101060.66;;;18.63;78.04
50380;BME280;37474;59.468;18.040;2022-08-03T05:30:35;101055.13;;;18.54;78.48
50380;BME280;37474;59.468;18.040;2022-08-03T05:33:05;101058.56;;;18.76;78.10
50380;BME280;37474;59.468;18.040;2022-08-03T05:35:33;101058.47;;;18.87;77.48
50380;BME280;37474;59.468;18.040;2022-08-03T05:38:25;101059.66;;;19.04;77.86
50380;BME280;37474;59.468;18.040;2022-08-03T05:41:02;101060.09;;;19.18;76.89
50380;BME280;37474;59.468;18.040;2022-08-03T05:43:53;101058.69;;;19.14;76.77
50380;BME280;37474;59.468;18.040;2022-08-03T05:46:24;101062.50;;;19.21;77.04
50380;BME280;37474;59.468;18.040;2022-08-03T05:48:52;101069.91;;;19.27;76.30
50380;BME280;37474;59.468;18.040;2022-08-03T05:51:22;101073.06;;;19.52;75.87
50380;BME280;37474;59.468;18.040;2022-08-03T05:53:55;101065.38;;;19.58;76.22
50380;BME280;37474;59.468;18.040;2022-08-03T05:56:23;101068.88;;;19.59;74.87
50380;BME280;37474;59.468;18.040;2022-08-03T05:58:52;101061.97;;;19.47;75.57
50380;BME280;37474;59.468;18.040;2022-08-03T06:01:26;101064.19;;;19.32;76.49
50380;BME280;37474;59.468;18.040;2022-08-03T06:03:54;101051.53;;;19.74;76.24
50380;BME280;37474;59.468;18.040;2022-08-03T06:06:23;101052.88;;;19.78;74.89
50380;BME280;37474;59.468;18.040;2022-08-03T06:09:00;101054.84;;;19.86;75.13
50380;BME280;37474;59.468;18.040;2022-08-03T06:11:31;101060.88;;;19.78;74.54
50380;BME280;37474;59.468;18.040;2022-08-03T06:14:05;101071.09;;;19.54;75.80
50380;BME280;37474;59.468;18.040;2022-08-03T06:16:36;101064.09;;;19.63;76.46
50380;BME280;37474;59.468;18.040;2022-08-03T06:19:04;101067.75;;;19.71;76.69
50380;BME280;37474;59.468;18.040;2022-08-03T06:21:34;101066.63;;;19.74;77.95
50380;BME280;37474;59.468;18.040;2022-08-03T06:24:07;101060.72;;;19.99;76.12
50380;BME280;37474;59.468;18.040;2022-08-03T06:26:37;101064.59;;;20.24;74.25
50380;BME280;37474;59.468;18.040;2022-08-03T06:29:05;101063.03;;;20.41;74.01
50380;BME280;37474;59.468;18.040;2022-08-03T06:31:35;101063.31;;;20.47;72.41
50380;BME280;37474;59.468;18.040;2022-08-03T06:34:05;101074.53;;;20.41;73.28
50380;BME280;37474;59.468;18.040;2022-08-03T06:36:53;101058.13;;;20.46;73.55
50380;BME280;37474;59.468;18.040;2022-08-03T06:39:30;101061.34;;;20.49;72.38
50380;BME280;37474;59.468;18.040;2022-08-03T06:42:01;101066.91;;;20.83;72.75
50380;BME280;37474;59.468;18.040;2022-08-03T06:44:29;101073.81;;;21.04;73.19
50380;BME280;37474;59.468;18.040;2022-08-03T06:47:00;101068.53;;;20.94;68.71
50380;BME280;37474;59.468;18.040;2022-08-03T06:49:30;101076.53;;;20.94;71.66
50380;BME280;37474;59.468;18.040;2022-08-03T06:51:59;101074.22;;;20.54;73.34
50380;BME280;37474;59.468;18.040;2022-08-03T06:54:35;101079.09;;;20.59;73.50
50380;BME280;37474;59.468;18.040;2022-08-03T06:57:04;101083.06;;;20.25;74.93
50380;BME280;37474;59.468;18.040;2022-08-03T06:59:33;101084.34;;;20.12;75.21
50380;BME280;37474;59.468;18.040;2022-08-03T07:02:24;101081.38;;;20.44;75.17
50380;BME280;37474;59.468;18.040;2022-08-03T07:04:56;101084.03;;;20.44;74.33
50380;BME280;37474;59.468;18.040;2022-08-03T07:07:26;101088.63;;;20.51;73.20
50380;BME280;37474;59.468;18.040;2022-08-03T07:09:55;101082.50;;;20.41;74.74
50380;BME280;37474;59.468;18.040;2022-08-03T07:12:30;101074.44;;;20.70;73.80
50380;BME280;37474;59.468;18.040;2022-08-03T07:15:00;101076.72;;;20.83;73.17
50380;BME280;37474;59.468;18.040;2022-08-03T07:17:31;101069.47;;;21.03;72.93
50380;BME280;37474;59.468;18.040;2022-08-03T07:20:01;101070.34;;;20.76;73.23
50380;BME280;37474;59.468;18.040;2022-08-03T07:22:29;101065.44;;;20.99;73.39
50380;BME280;37474;59.468;18.040;2022-08-03T07:25:00;101077.50;;;21.20;73.37
50380;BME280;37474;59.468;18.040;2022-08-03T07:27:28;101070.75;;;21.53;70.69
50380;BME280;37474;59.468;18.040;2022-08-03T07:29:57;101068.38;;;21.68;71.28
50380;BME280;37474;59.468;18.040;2022-08-03T07:32:27;101061.09;;;21.96;68.52
50380;BME280;37474;59.468;18.040;2022-08-03T07:34:57;101057.63;;;22.22;66.13
50380;BME280;37474;59.468;18.040;2022-08-03T07:37:27;101051.34;;;22.05;66.63
50380;BME280;37474;59.468;18.040;2022-08-03T07:39:59;101046.81;;;22.23;67.46
50380;BME280;37474;59.468;18.040;2022-08-03T07:42:28;101056.13;;;22.19;67.28
50380;BME280;37474;59.468;18.040;2022-08-03T07:44:57;101049.94;;;22.44;66.40
50380;BME280;37474;59.468;18.040;2022-08-03T07:47:28;101055.38;;;22.61;66.12
50380;BME280;37474;59.468;18.040;2022-08-03T07:50:02;101047.00;;;22.81;64.50
50380;BME280;37474;59.468;18.040;2022-08-03T07:52:36;101046.28;;;22.45;65.80
50380;BME280;37474;59.468;18.040;2022-08-03T07:55:20;101048.34;;;22.86;64.87
50380;BME280;37474;59.468;18.040;2022-08-03T07:57:58;101044.28;;;23.32;63.99
50380;BME280;37474;59.468;18.040;2022-08-03T08:00:27;101047.88;;;23.73;61.64
50380;BME280;37474;59.468;18.040;2022-08-03T08:02:55;101046.84;;;23.58;61.65
50380;BME280;37474;59.468;18.040;2022-08-03T08:05:23;101050.69;;;23.55;62.32
50380;BME280;37474;59.468;18.040;2022-08-03T08:07:51;101041.63;;;23.40;63.00
50380;BME280;37474;59.468;18.040;2022-08-03T08:10:21;101040.00;;;23.55;63.22
50380;BME280;37474;59.468;18.040;2022-08-03T08:12:49;101047.31;;;23.45;62.88
50380;BME280;37474;59.468;18.040;2022-08-03T08:15:17;101045.34;;;23.55;63.26
50380;BME280;37474;59.468;18.040;2022-08-03T08:17:50;101057.88;;;23.55;62.92
50380;BME280;37474;59.468;18.040;2022-08-03T08:20:20;101055.69;;;24.07;62.34
50380;BME280;37474;59.468;18.040;2022-08-03T08:22:56;101050.75;;;24.59;61.15
50380;BME280;37474;59.468;18.040;2022-08-03T08:25:29;101054.22;;;24.76;58.78
50380;BME280;37474;59.468;18.040;2022-08-03T08:27:58;101059.53;;;24.84;58.93
50380;BME280;37474;59.468;18.040;2022-08-03T08:30:48;101062.19;;;24.92;58.96
50380;BME280;37474;59.468;18.040;2022-08-03T08:33:18;101064.22;;;24.90;59.24
50380;BME280;37474;59.468;18.040;2022-08-03T08:35:50;101060.69;;;24.42;59.49
50380;BME280;37474;59.468;18.040;2022-08-03T08:38:22;101059.81;;;24.50;60.70
50380;BME280;37474;59.468;18.040;2022-08-03T08:40:53;101062.84;;;24.47;61.89
50380;BME280;37474;59.468;18.040;2022-08-03T08:43:26;101063.03;;;24.05;62.02
50380;BME280;37474;59.468;18.040;2022-08-03T08:45:56;101065.03;;;24.19;60.61
50380;BME280;37474;59.468;18.040;2022-08-03T08:48:29;101056.63;;;24.55;60.58
50380;BME280;37474;59.468;18.040;2022-08-03T08:50:59;101059.31;;;24.55;60.72
50380;BME280;37474;59.468;18.040;2022-08-03T08:53:28;101046.47;;;24.18;60.21
50380;BME280;37474;59.468;18.040;2022-08-03T08:56:04;101042.97;;;24.01;61.81
50380;BME280;37474;59.468;18.040;2022-08-03T08:58:36;101046.53;;;23.69;63.37
50380;BME280;37474;59.468;18.040;2022-08-03T09:01:09;101043.63;;;23.46;64.13
50380;BME280;37474;59.468;18.040;2022-08-03T09:03:39;101039.22;;;23.12;64.53
50380;BME280;37474;59.468;18.040;2022-08-03T09:06:13;101042.78;;;23.37;65.80
50380;BME280;37474;59.468;18.040;2022-08-03T09:08:44;101039.97;;;23.47;64.46
50380;BME280;37474;59.468;18.040;2022-08-03T09:11:15;101047.88;;;23.89;62.82
50380;BME280;37474;59.468;18.040;2022-08-03T09:13:42;101031.91;;;24.36;61.83
50380;BME280;37474;59.468;18.040;2022-08-03T09:16:14;101029.16;;;24.61;60.16
50380;BME280;37474;59.468;18.040;2022-08-03T09:18:48;101032.66;;;25.00;59.05
50380;BME280;37474;59.468;18.040;2022-08-03T09:21:20;101033.38;;;24.94;58.25
50380;BME280;37474;59.468;18.040;2022-08-03T09:24:00;101031.66;;;25.01;58.25
50380;BME280;37474;59.468;18.040;2022-08-03T09:26:33;101035.78;;;24.81;57.87
50380;BME280;37474;59.468;18.040;2022-08-03T09:29:05;101042.53;;;24.69;59.30
50380;BME280;37474;59.468;18.040;2022-08-03T09:31:41;101047.22;;;25.06;58.92
50380;BME280;37474;59.468;18.040;2022-08-03T09:34:13;101047.78;;;25.24;56.74
50380;BME280;37474;59.468;18.040;2022-08-03T09:36:43;101046.78;;;25.48;56.11
50380;BME280;37474;59.468;18.040;2022-08-03T09:39:13;101047.38;;;25.35;56.81
50380;BME280;37474;59.468;18.040;2022-08-03T09:41:44;101044.97;;;25.71;56.22
50380;BME280;37474;59.468;18.040;2022-08-03T09:44:13;101050.38;;;25.86;56.09
50380;BME280;37474;59.468;18.040;2022-08-03T09:46:52;101041.53;;;26.30;53.88
50380;BME280;37474;59.468;18.040;2022-08-03T09:49:23;101050.56;;;26.52;53.65
50380;BME280;37474;59.468;18.040;2022-08-03T09:51:51;101054.56;;;25.89;54.28
50380;BME280;37474;59.468;18.040;2022-08-03T09:54:42;101051.91;;;25.35;56.95
50380;BME280;37474;59.468;18.040;2022-08-03T09:57:25;101042.53;;;25.31;56.34
50380;BME280;37474;59.468;18.040;2022-08-03T10:00:05;101045.34;;;25.60;56.59
50380;BME280;37474;59.468;18.040;2022-08-03T10:02:38;101043.56;;;25.98;54.18
50380;BME280;37474;59.468;18.040;2022-08-03T10:05:10;101037.50;;;26.49;53.60
50380;BME280;37474;59.468;18.040;2022-08-03T10:07:47;101032.69;;;26.59;52.64
50380;BME280;37474;59.468;18.040;2022-08-03T10:10:16;101033.88;;;26.86;52.50
50380;BME280;37474;59.468;18.040;2022-08-03T10:12:59;101030.81;;;27.03;52.03
50380;BME280;37474;59.468;18.040;2022-08-03T10:15:29;101030.22;;;27.08;51.73
50380;BME280;37474;59.468;18.040;2022-08-03T10:18:17;101024.72;;;26.36;52.50
50380;BME280;37474;59.468;18.040;2022-08-03T10:20:52;101024.03;;;26.19;53.58
50380;BME280;37474;59.468;18.040;2022-08-03T10:23:20;101023.53;;;26.38;53.41
50380;BME280;37474;59.468;18.040;2022-08-03T10:26:01;101013.28;;;26.04;54.12
50380;BME280;37474;59.468;18.040;2022-08-03T10:28:34;101020.56;;;26.63;54.58
50380;BME280;37474;59.468;18.040;2022-08-03T10:31:12;101013.41;;;26.70;53.78
50380;BME280;37474;59.468;18.040;2022-08-03T10:33:42;101026.19;;;26.83;53.14
50380;BME280;37474;59.468;18.040;2022-08-03T10:36:22;101015.91;;;26.27;53.83
50380;BME280;37474;59.468;18.040;2022-08-03T10:38:51;101018.72;;;25.59;55.64
50380;BME280;37474;59.468;18.040;2022-08-03T10:41:21;101010.44;;;25.68;56.65
50380;BME280;37474;59.468;18.040;2022-08-03T10:43:53;101014.38;;;25.81;56.63
50380;BME280;37474;59.468;18.040;2022-08-03T10:46:26;101009.41;;;26.22;55.75
50380;BME280;37474;59.468;18.040;2022-08-03T10:48:55;101016.19;;;26.62;54.36
50380;BME280;37474;59.468;18.040;2022-08-03T10:51:24;101014.25;;;26.70;53.13
50380;BME280;37474;59.468;18.040;2022-08-03T10:53:59;101017.94;;;26.84;53.65
50380;BME280;37474;59.468;18.040;2022-08-03T10:56:37;101010.28;;;26.37;54.42
50380;BME280;37474;59.468;18.040;2022-08-03T11:00:00;101013.88;;;26.59;54.30
50380;BME280;37474;59.468;18.040;2022-08-03T11:03:02;101014.28;;;25.89;56.88
50380;BME280;37474;59.468;18.040;2022-08-03T11:05:33;101022.28;;;25.97;56.78
50380;BME280;37474;59.468;18.040;2022-08-03T11:08:25;101024.72;;;25.38;57.04
50380;BME280;37474;59.468;18.040;2022-08-03T11:10:54;101016.66;;;25.15;57.82
50380;BME280;37474;59.468;18.040;2022-08-03T11:13:24;101023.28;;;25.27;58.76
50380;BME280;37474;59.468;18.040;2022-08-03T11:15:57;101018.09;;;26.09;56.57
50380;BME280;37474;59.468;18.040;2022-08-03T11:18:30;101021.91;;;26.00;55.86
50380;BME280;37474;59.468;18.040;2022-08-03T11:20:59;101024.06;;;25.59;56.73
50380;BME280;37474;59.468;18.040;2022-08-03T11:23:43;101008.38;;;25.93;56.94
50380;BME280;37474;59.468;18.040;2022-08-03T11:26:33;101028.38;;;25.91;55.23
50380;BME280;37474;59.468;18.040;2022-08-03T11:29:27;101023.13;;;25.52;57.53
50380;BME280;37474;59.468;18.040;2022-08-03T11:31:57;101010.25;;;25.47;57.26
50380;BME280;37474;59.468;18.040;2022-08-03T11:34:25;101004.66;;;26.09;56.10
50380;BME280;37474;59.468;18.040;2022-08-03T11:37:18;101008.84;;;26.26;56.08
50380;BME280;37474;59.468;18.040;2022-08-03T11:39:51;101006.53;;;26.82;54.59
50380;BME280;37474;59.468;18.040;2022-08-03T11:42:41;101005.31;;;27.42;52.29
50380;BME280;37474;59.468;18.040;2022-08-03T11:45:15;101005.44;;;27.13;53.27
50380;BME280;37474;59.468;18.040;2022-08-03T11:47:48;101007.38;;;26.68;53.45
50380;BME280;37474;59.468;18.040;2022-08-03T11:50:19;100996.72;;;27.11;52.68
50380;BME280;37474;59.468;18.040;2022-08-03T11:52:49;100997.50;;;27.47;52.20
50380;BME280;37474;59.468;18.040;2022-08-03T11:55:19;101004.69;;;26.83;52.96
50380;BME280;37474;59.468;18.040;2022-08-03T11:57:58;101001.53;;;26.20;54.32
50380;BME280;37474;59.468;18.040;2022-08-03T12:00:47;100994.13;;;26.07;55.94
50380;BME280;37474;59.468;18.040;2022-08-03T12:03:19;100996.97;;;25.77;56.56
50380;BME280;37474;59.468;18.040;2022-08-03T12:05:49;100994.59;;;25.96;56.92
50380;BME280;37474;59.468;18.040;2022-08-03T12:08:30;100987.31;;;25.67;57.20
50380;BME280;37474;59.468;18.040;2022-08-03T12:10:59;100991.53;;;25.39;59.06
50380;BME280;37474;59.468;18.040;2022-08-03T12:13:39;100993.34;;;24.93;59.75
50380;BME280;37474;59.468;18.040;2022-08-03T12:16:27;100991.34;;;25.18;60.32
50380;BME280;37474;59.468;18.040;2022-08-03T12:18:59;100989.81;;;25.69;58.42
50380;BME280;37474;59.468;18.040;2022-08-03T12:21:27;100991.16;;;25.88;57.44
50380;BME280;37474;59.468;18.040;2022-08-03T12:23:58;100994.31;;;26.21;56.66
50380;BME280;37474;59.468;18.040;2022-08-03T12:26:27;100989.59;;;26.23;56.08
50380;BME280;37474;59.468;18.040;2022-08-03T12:28:56;100989.31;;;26.18;56.40
50380;BME280;37474;59.468;18.040;2022-08-03T12:31:28;100992.81;;;26.18;56.42
50380;BME280;37474;59.468;18.040;2022-08-03T12:34:00;100988.44;;;25.27;58.98
50380;BME280;37474;59.468;18.040;2022-08-03T12:36:34;100980.97;;;25.60;58.79
50380;BME280;37474;59.468;18.040;2022-08-03T12:39:04;100978.19;;;26.06;57.97
50380;BME280;37474;59.468;18.040;2022-08-03T12:41:38;100987.38;;;26.26;57.11
50380;BME280;37474;59.468;18.040;2022-08-03T12:44:08;100987.91;;;25.55;59.39
50380;BME280;37474;59.468;18.040;2022-08-03T12:46:37;100979.91;;;25.69;59.59
50380;BME280;37474;59.468;18.040;2022-08-03T12:49:16;100980.13;;;25.60;58.80
50380;BME280;37474;59.468;18.040;2022-08-03T12:51:57;100980.47;;;25.65;59.62
50380;BME280;37474;59.468;18.040;2022-08-03T12:54:34;100981.81;;;25.84;59.26
50380;BME280;37474;59.468;18.040;2022-08-03T12:57:07;100987.75;;;26.23;58.73
50380;BME280;37474;59.468;18.040;2022-08-03T12:59:39;100990.19;;;26.33;58.25
50380;BME280;37474;59.468;18.040;2022-08-03T13:02:20;100985.72;;;25.96;59.01
50380;BME280;37474;59.468;18.040;2022-08-03T13:04:53;100990.13;;;26.03;58.60
50380;BME280;37474;59.468;18.040;2022-08-03T13:07:21;100988.75;;;26.22;58.35
50380;BME280;37474;59.468;18.040;2022-08-03T13:09:51;100987.78;;;26.38;58.13
50380;BME280;37474;59.468;18.040;2022-08-03T13:12:23;100981.59;;;26.88;57.71